Home > Products > Valid Products > TAF

000
FTUS46 KPQR 220559 AAA
TAFSLE
TAF AMD
KSLE 220559Z 2206/2306 24003KT P6SM SKC
     FM221000 20007KT P6SM BKN015
     FM221700 17005KT P6SM SCT100
     FM230000 30005KT P6SM OVC250=



000
FTUS46 KPQR 220555
TAFSLE
TAF
KSLE 220555Z 2206/2306 24003KT P6SM SKC
     FM221300 20007KT P6SM BKN015
     FM221700 17005KT P6SM SCT100
     FM230000 30005KT P6SM OVC250=



000
FTUS46 KPQR 220555
TAFAST
TAF
KAST 220555Z 2206/2306 21006KT P6SM OVC010
     FM221800 23006KT P6SM OVC015
     FM230400 18004KT P6SM OVC007=



000
FTUS46 KPQR 220555
TAFTTD
TAF
KTTD 220555Z 2206/2306 25004KT P6SM SKC
     FM221000 VRB03KT P6SM OVC015
     FM221700 VRB03KT P6SM BKN050
     FM222000 26005KT P6SM SCT050 SCT100=



000
FTUS46 KPQR 220555
TAFONP
TAF
KONP 220555Z 2206/2306 20005KT 4SM BR OVC006
     FM221800 21010KT 4SM BR OVC009
     FM230100 19005KT 1SM BR OVC003=



000
FTUS46 KPQR 220555
TAFPDX
TAF
KPDX 220555Z 2206/2306 34005KT P6SM BKN250
     FM221100 VRB03KT P6SM OVC012
     FM221700 24006KT P6SM BKN050
     FM222000 26005KT P6SM SCT050 SCT100=



000
FTUS46 KPQR 220555
TAFHIO
TAF
KHIO 220555Z 2206/2306 28007KT P6SM SKC
     FM221100 VRB02KT P6SM OVC015
     FM221700 VRB04KT P6SM SCT100=



000
FTUS46 KPQR 220555
TAFEUG
TAF
KEUG 220555Z 2206/2306 24005KT P6SM BKN020 BKN070
     FM221300 22007KT P6SM BKN012
     FM221700 19005KT P6SM BKN100
     FM230000 27007KT P6SM OVC250=



000
FTUS46 KPQR 220555
TAFEUG
TAF
KEUG 220555Z 2206/2306 24005KT P6SM BKN020 BKN070
     FM221300 22007KT P6SM BKN012
     FM221700 19005KT P6SM BKN100
     FM230000 27007KT P6SM OVC250=



000
FTUS46 KPQR 220555
TAFSLE
TAF
KSLE 220555Z 2206/2306 24003KT P6SM SKC
     FM221300 20007KT P6SM BKN015
     FM221700 17005KT P6SM SCT100
     FM230000 30005KT P6SM OVC250=



000
FTUS46 KPQR 220555
TAFONP
TAF
KONP 220555Z 2206/2306 20005KT 4SM BR OVC006
     FM221800 21010KT 4SM BR OVC009
     FM230100 19005KT 1SM BR OVC003=



000
FTUS46 KPQR 220555
TAFHIO
TAF
KHIO 220555Z 2206/2306 28007KT P6SM SKC
     FM221100 VRB02KT P6SM OVC015
     FM221700 VRB04KT P6SM SCT100=



000
FTUS46 KPQR 220555
TAFTTD
TAF
KTTD 220555Z 2206/2306 25004KT P6SM SKC
     FM221000 VRB03KT P6SM OVC015
     FM221700 VRB03KT P6SM BKN050
     FM222000 26005KT P6SM SCT050 SCT100=



000
FTUS46 KPQR 220555
TAFPDX
TAF
KPDX 220555Z 2206/2306 34005KT P6SM BKN250
     FM221100 VRB03KT P6SM OVC012
     FM221700 24006KT P6SM BKN050
     FM222000 26005KT P6SM SCT050 SCT100=



000
FTUS46 KPQR 220555
TAFAST
TAF
KAST 220555Z 2206/2306 21006KT P6SM OVC010
     FM221800 23006KT P6SM OVC015
     FM230400 18004KT P6SM OVC007=



000
FTUS46 KPQR 220257 AAA
TAFPDX
TAF AMD
KPDX 220257Z 2203/2224 32005KT P6SM FEW050 BKN250
     FM221100 VRB03KT P6SM OVC012
     FM221700 24006KT P6SM BKN050
     FM222000 26005KT P6SM SCT050 SCT100=



000
FTUS46 KPQR 220257 AAA
TAFPDX
TAF AMD
KPDX 220257Z 2203/2224 32005KT P6SM FEW050 BKN250
     FM221100 VRB03KT P6SM OVC012
     FM221700 24006KT P6SM BKN050
     FM222000 26005KT P6SM SCT050 SCT100=



000
FTUS46 KPQR 220158 AAA
TAFAST
TAF AMD
KAST 220158Z 2202/2224 21012G20KT P6SM BKN020
     FM220300 21006KT P6SM OVC009
     FM221800 23006KT P6SM OVC015=



000
FTUS46 KPQR 220158 AAA
TAFAST
TAF AMD
KAST 220158Z 2202/2224 21012G20KT P6SM BKN020
     FM220300 21006KT P6SM OVC009
     FM221800 23006KT P6SM OVC015=



000
FTUS46 KPQR 212326
TAFONP
TAF
KONP 212326Z 2200/2224 19016G25KT P6SM BKN015
     FM220300 20005KT 2SM BR OVC007
     FM221800 21010KT 4SM BR OVC015=



000
FTUS46 KPQR 212326
TAFSLE
TAF
KSLE 212326Z 2200/2224 22010KT P6SM SKC
     FM221300 20007KT P6SM BKN015
     FM221700 17005KT P6SM SCT100=



000
FTUS46 KPQR 212326
TAFTTD
TAF
KTTD 212326Z 2200/2224 25004KT P6SM SKC
     FM221000 VRB03KT P6SM OVC015
     FM221700 VRB03KT P6SM BKN050
     FM222000 26005KT P6SM SCT050 SCT100=



000
FTUS46 KPQR 212326
TAFHIO
TAF
KHIO 212326Z 2200/2224 20005KT P6SM SKC
     FM221000 VRB02KT P6SM OVC015
     FM221700 VRB04KT P6SM SCT100=



000
FTUS46 KPQR 212326
TAFAST
TAF
KAST 212326Z 2200/2224 21012G20KT P6SM SCT015
     FM220300 21006KT P6SM OVC009
     FM221800 23006KT P6SM OVC015=



000
FTUS46 KPQR 212326
TAFPDX
TAF
KPDX 212326Z 2200/2224 20008KT P6SM FEW050
     FM221100 VRB03KT P6SM OVC012
     FM221700 24006KT P6SM BKN050
     FM222000 26005KT P6SM SCT050 SCT100=



000
FTUS46 KPQR 212326
TAFEUG
TAF
KEUG 212326Z 2200/2224 24005KT P6SM FEW070
     FM221300 22007KT P6SM BKN012
     FM221700 19005KT P6SM BKN100=



000
FTUS46 KPQR 212326
TAFPDX
TAF
KPDX 212326Z 2200/2224 20008KT P6SM FEW050
     FM221100 VRB03KT P6SM OVC012
     FM221700 24006KT P6SM BKN050
     FM222000 26005KT P6SM SCT050 SCT100=



000
FTUS46 KPQR 212326
TAFTTD
TAF
KTTD 212326Z 2200/2224 25004KT P6SM SKC
     FM221000 VRB03KT P6SM OVC015
     FM221700 VRB03KT P6SM BKN050
     FM222000 26005KT P6SM SCT050 SCT100=



000
FTUS46 KPQR 212326
TAFEUG
TAF
KEUG 212326Z 2200/2224 24005KT P6SM FEW070
     FM221300 22007KT P6SM BKN012
     FM221700 19005KT P6SM BKN100=



000
FTUS46 KPQR 212326
TAFHIO
TAF
KHIO 212326Z 2200/2224 20005KT P6SM SKC
     FM221000 VRB02KT P6SM OVC015
     FM221700 VRB04KT P6SM SCT100=



000
FTUS46 KPQR 212326
TAFSLE
TAF
KSLE 212326Z 2200/2224 22010KT P6SM SKC
     FM221300 20007KT P6SM BKN015
     FM221700 17005KT P6SM SCT100=



000
FTUS46 KPQR 212326
TAFAST
TAF
KAST 212326Z 2200/2224 21012G20KT P6SM SCT015
     FM220300 21006KT P6SM OVC009
     FM221800 23006KT P6SM OVC015=



000
FTUS46 KPQR 212326
TAFONP
TAF
KONP 212326Z 2200/2224 19016G25KT P6SM BKN015
     FM220300 20005KT 2SM BR OVC007
     FM221800 21010KT 4SM BR OVC015=



000
FTUS46 KPQR 212221 AAB
TAFONP
TAF AMD
KONP 212221Z 2122/2218 19016G25KT P6SM BKN018
     FM220300 20008KT 4SM BR OVC015=



000
FTUS46 KPQR 212221 AAB
TAFONP
TAF AMD
KONP 212221Z 2122/2218 19016G25KT P6SM BKN018
     FM220300 20008KT 4SM BR OVC015=



000
FTUS46 KPQR 212102 AAA
TAFPDX
TAF AMD
KPDX 212102Z 2121/2218 20008KT P6SM FEW050
     FM221100 VRB03KT P6SM OVC015
     FM221700 22006KT P6SM BKN050=



000
FTUS46 KPQR 212102 AAA
TAFPDX
TAF AMD
KPDX 212102Z 2121/2218 20008KT P6SM FEW050
     FM221100 VRB03KT P6SM OVC015
     FM221700 22006KT P6SM BKN050=



000
FTUS46 KPQR 212015 AAA
TAFONP
TAF AMD
KONP 212015Z 2120/2218 19016G25KT P6SM SCT020
     FM220300 20008KT 4SM BR OVC015=



000
FTUS46 KPQR 212002 AAB
TAFAST
TAF AMD
KAST 212002Z 2120/2218 21012G20KT P6SM SCT015
     FM220200 21004KT P6SM OVC010
     FM221700 22006KT P6SM OVC015=



000
FTUS46 KPQR 212002 AAB
TAFAST
TAF AMD
KAST 212002Z 2120/2218 21012G20KT P6SM SCT015
     FM220200 21004KT P6SM OVC010
     FM221700 22006KT P6SM OVC015=



000
FTUS46 KPQR 211914 AAA
TAFAST
TAF AMD
KAST 211914Z 2119/2218 21012G20KT P6SM OVC015
     FM220200 21004KT P6SM OVC009
     FM221700 22006KT P6SM OVC015=



000
FTUS46 KPQR 211914 AAA
TAFAST
TAF AMD
KAST 211914Z 2119/2218 21012G20KT P6SM OVC015
     FM220200 21004KT P6SM OVC009
     FM221700 22006KT P6SM OVC015=



000
FTUS46 KPQR 211733
TAFAST
TAF
KAST 211733Z 2118/2218 22009KT P6SM BKN010
     FM220200 21006KT P6SM OVC013=



000
FTUS46 KPQR 211733
TAFEUG
TAF
KEUG 211733Z 2118/2218 22007KT P6SM SKC
     FM212100 24005KT P6SM SKC
     FM221100 22007KT P6SM BKN015=



000
FTUS46 KPQR 211733
TAFPDX
TAF
KPDX 211733Z 2118/2218 29004KT P6SM FEW050
     FM221100 20006KT P6SM OVC015
     FM221700 20006KT P6SM BKN050=



000
FTUS46 KPQR 211733
TAFTTD
TAF
KTTD 211733Z 2118/2218 VRB04KT P6SM SKC
     FM211900 25004KT P6SM SKC
     FM221000 VRB03KT P6SM OVC015
     FM221700 VRB03KT P6SM OVC050=



000
FTUS46 KPQR 211733
TAFSLE
TAF
KSLE 211733Z 2118/2218 18005KT P6SM SKC
     FM212000 24010KT P6SM SKC
     FM221100 20007KT P6SM SCT015=



000
FTUS46 KPQR 211733
TAFHIO
TAF
KHIO 211733Z 2118/2218 07005KT P6SM SKC
     FM212200 20005KT P6SM SKC
     FM221000 VRB02KT P6SM OVC015
     FM221700 VRB04KT P6SM BKN050=



000
FTUS46 KPQR 211733
TAFONP
TAF
KONP 211733Z 2118/2218 20010G20KT P6SM OVC010
     FM220300 20008KT P6SM OVC014=



000
FTUS46 KPQR 211733
TAFPDX
TAF
KPDX 211733Z 2118/2218 29004KT P6SM FEW050
     FM221100 20006KT P6SM OVC015
     FM221700 20006KT P6SM BKN050=



000
FTUS46 KPQR 211733
TAFTTD
TAF
KTTD 211733Z 2118/2218 VRB04KT P6SM SKC
     FM211900 25004KT P6SM SKC
     FM221000 VRB03KT P6SM OVC015
     FM221700 VRB03KT P6SM OVC050=



000
FTUS46 KPQR 211733
TAFONP
TAF
KONP 211733Z 2118/2218 20010G20KT P6SM OVC010
     FM220300 20008KT P6SM OVC014=



000
FTUS46 KPQR 211733
TAFHIO
TAF
KHIO 211733Z 2118/2218 07005KT P6SM SKC
     FM212200 20005KT P6SM SKC
     FM221000 VRB02KT P6SM OVC015
     FM221700 VRB04KT P6SM BKN050=



000
FTUS46 KPQR 211733
TAFAST
TAF
KAST 211733Z 2118/2218 22009KT P6SM BKN010
     FM220200 21006KT P6SM OVC013=



000
FTUS46 KPQR 211733
TAFSLE
TAF
KSLE 211733Z 2118/2218 18005KT P6SM SKC
     FM212000 24010KT P6SM SKC
     FM221100 20007KT P6SM SCT015=



000
FTUS46 KPQR 211733
TAFEUG
TAF
KEUG 211733Z 2118/2218 22007KT P6SM SKC
     FM212100 24005KT P6SM SKC
     FM221100 22007KT P6SM BKN015=



000
FTUS46 KPQR 211502 AAB
TAFPDX
TAF AMD
KPDX 211502Z 2115/2212 29004KT P6SM FEW050
     FM221000 20006KT P6SM BKN015=



000
FTUS46 KPQR 211502 AAB
TAFPDX
TAF AMD
KPDX 211502Z 2115/2212 29004KT P6SM FEW050
     FM221000 20006KT P6SM BKN015=



000
FTUS46 KPQR 211325 AAA
TAFPDX
TAF AMD
KPDX 211325Z 2113/2212 29004KT P6SM FEW050
     FM221000 30006KT P6SM BKN011=



000
FTUS46 KPQR 211325 AAA
TAFPDX
TAF AMD
KPDX 211325Z 2113/2212 29004KT P6SM FEW050
     FM221000 30006KT P6SM BKN011=



000
FTUS46 KPQR 211324 AAA
TAFTTD
TAF AMD
KTTD 211324Z 2113/2212 VRB04KT P6SM SKC
     FM211900 25004KT P6SM SKC
     FM220900 VRB03KT P6SM BKN010=



000
FTUS46 KPQR 211324 AAA
TAFTTD
TAF AMD
KTTD 211324Z 2113/2212 VRB04KT P6SM SKC
     FM211900 25004KT P6SM SKC
     FM220900 VRB03KT P6SM BKN010=



000
FTUS46 KPQR 211129
TAFAST
TAF
KAST 211129Z 2112/2212 22005KT P6SM OVC007
     FM212000 22009KT P6SM BKN010
     FM220200 21006KT P6SM OVC013=



000
FTUS46 KPQR 211129
TAFEUG
TAF
KEUG 211129Z 2112/2212 22007KT P6SM SKC
     FM211800 24005KT P6SM SKC
     FM221000 22007KT P6SM BKN012=



000
FTUS46 KPQR 211129
TAFONP
TAF
KONP 211129Z 2112/2212 21010KT 4SM BR OVC005
     FM211900 20010G20KT P6SM OVC009
     FM220300 20008KT P6SM OVC012=



000
FTUS46 KPQR 211129
TAFHIO
TAF
KHIO 211129Z 2112/2212 07005KT P6SM SKC
     FM212200 25007KT P6SM SKC
     FM221000 29004KT P6SM BKN010=



000
FTUS46 KPQR 211129
TAFSLE
TAF
KSLE 211129Z 2112/2212 18005KT P6SM SKC
     FM211800 24010KT P6SM SKC
     FM221000 20007KT P6SM SCT012=



000
FTUS46 KPQR 211129
TAFPDX
TAF
KPDX 211129Z 2112/2212 29004KT P6SM FEW050
     FM211800 10010KT P6SM FEW050
     FM212100 27007KT P6SM SKC
     FM221000 30006KT P6SM BKN011=



000
FTUS46 KPQR 211129
TAFTTD
TAF
KTTD 211129Z 2112/2212 10012G23KT P6SM FEW050
     FM211800 11011KT P6SM SKC
     FM212100 25004KT P6SM SKC
     FM220900 VRB03KT P6SM BKN010=



000
FTUS46 KPQR 211129
TAFAST
TAF
KAST 211129Z 2112/2212 22005KT P6SM OVC007
     FM212000 22009KT P6SM BKN010
     FM220200 21006KT P6SM OVC013=



000
FTUS46 KPQR 211129
TAFPDX
TAF
KPDX 211129Z 2112/2212 29004KT P6SM FEW050
     FM211800 10010KT P6SM FEW050
     FM212100 27007KT P6SM SKC
     FM221000 30006KT P6SM BKN011=



000
FTUS46 KPQR 211129
TAFSLE
TAF
KSLE 211129Z 2112/2212 18005KT P6SM SKC
     FM211800 24010KT P6SM SKC
     FM221000 20007KT P6SM SCT012=



000
FTUS46 KPQR 211129
TAFEUG
TAF
KEUG 211129Z 2112/2212 22007KT P6SM SKC
     FM211800 24005KT P6SM SKC
     FM221000 22007KT P6SM BKN012=



000
FTUS46 KPQR 211129
TAFHIO
TAF
KHIO 211129Z 2112/2212 07005KT P6SM SKC
     FM212200 25007KT P6SM SKC
     FM221000 29004KT P6SM BKN010=



000
FTUS46 KPQR 211129
TAFTTD
TAF
KTTD 211129Z 2112/2212 10012G23KT P6SM FEW050
     FM211800 11011KT P6SM SKC
     FM212100 25004KT P6SM SKC
     FM220900 VRB03KT P6SM BKN010=



000
FTUS46 KPQR 211129
TAFONP
TAF
KONP 211129Z 2112/2212 21010KT 4SM BR OVC005
     FM211900 20010G20KT P6SM OVC009
     FM220300 20008KT P6SM OVC012=



000
FTUS46 KPQR 210835 AAA
TAFONP
TAF AMD
KONP 210835Z 2109/2206 19011G18KT 3SM BR OVC005
     FM211600 20010G20KT P6SM OVC005
     FM220100 20008KT P6SM OVC010=



000
FTUS46 KPQR 210835 AAA
TAFONP
TAF AMD
KONP 210835Z 2109/2206 19011G18KT 3SM BR OVC005
     FM211600 20010G20KT P6SM OVC005
     FM220100 20008KT P6SM OVC010=



000
FTUS46 KPQR 210736 AAA
TAFAST
TAF AMD
KAST 210736Z 2108/2206 23003KT P6SM FEW005
     FM210900 20005KT 3SM BR OVC003
     FM211700 20005KT P6SM OVC007
     FM212000 22009KT P6SM OVC015
     FM220200 21006KT P6SM OVC007=



000
FTUS46 KPQR 210736 AAA
TAFAST
TAF AMD
KAST 210736Z 2108/2206 23003KT P6SM FEW005
     FM210900 20005KT 3SM BR OVC003
     FM211700 20005KT P6SM OVC007
     FM212000 22009KT P6SM OVC015
     FM220200 21006KT P6SM OVC007=



000
FTUS46 KPQR 210528
TAFEUG
TAF
KEUG 210528Z 2106/2206 22007KT P6SM SKC
     FM211800 24005KT P6SM SKC=



000
FTUS46 KPQR 210528
TAFSLE
TAF
KSLE 210528Z 2106/2206 VRB03KT P6SM SKC
     FM211800 20005KT P6SM SKC=



000
FTUS46 KPQR 210528
TAFPDX
TAF
KPDX 210528Z 2106/2206 09007KT P6SM BKN060
     FM211800 18005KT P6SM SCT250=



000
FTUS46 KPQR 210528
TAFONP
TAF
KONP 210528Z 2106/2206 21011G18KT 1SM BR OVC003
     FM210800 18010KT 1/2SM FG OVC001
     FM211600 21006KT 1SM BR OVC001
     FM212000 22010KT P6SM OVC003
     FM220100 20008KT 1/2SM FG OVC001=



000
FTUS46 KPQR 210528
TAFHIO
TAF
KHIO 210528Z 2106/2206 04005KT P6SM SKC
     FM211800 18005KT P6SM SKC=



000
FTUS46 KPQR 210528
TAFAST
TAF
KAST 210528Z 2106/2206 VRB03KT P6SM SKC
     FM211100 19005KT 5SM BR BKN007
     FM211300 18003KT 1/2SM FG OVC003
     FM211700 20005KT P6SM OVC007
     FM212000 22009KT P6SM OVC015
     FM220200 21006KT P6SM OVC007=



000
FTUS46 KPQR 210528
TAFTTD
TAF
KTTD 210528Z 2106/2206 09010G15KT P6SM SCT060
     FM211800 11005KT P6SM SKC=



000
FTUS46 KPQR 210528
TAFSLE
TAF
KSLE 210528Z 2106/2206 VRB03KT P6SM SKC
     FM211800 20005KT P6SM SKC=



000
FTUS46 KPQR 210528
TAFPDX
TAF
KPDX 210528Z 2106/2206 09007KT P6SM BKN060
     FM211800 18005KT P6SM SCT250=



000
FTUS46 KPQR 210528
TAFHIO
TAF
KHIO 210528Z 2106/2206 04005KT P6SM SKC
     FM211800 18005KT P6SM SKC=



000
FTUS46 KPQR 210528
TAFTTD
TAF
KTTD 210528Z 2106/2206 09010G15KT P6SM SCT060
     FM211800 11005KT P6SM SKC=



000
FTUS46 KPQR 210528
TAFEUG
TAF
KEUG 210528Z 2106/2206 22007KT P6SM SKC
     FM211800 24005KT P6SM SKC=



000
FTUS46 KPQR 210528
TAFAST
TAF
KAST 210528Z 2106/2206 VRB03KT P6SM SKC
     FM211100 19005KT 5SM BR BKN007
     FM211300 18003KT 1/2SM FG OVC003
     FM211700 20005KT P6SM OVC007
     FM212000 22009KT P6SM OVC015
     FM220200 21006KT P6SM OVC007=



000
FTUS46 KPQR 210528
TAFONP
TAF
KONP 210528Z 2106/2206 21011G18KT 1SM BR OVC003
     FM210800 18010KT 1/2SM FG OVC001
     FM211600 21006KT 1SM BR OVC001
     FM212000 22010KT P6SM OVC003
     FM220100 20008KT 1/2SM FG OVC001=



000
FTUS46 KPQR 210306 AAA
TAFAST
TAF AMD
KAST 210306Z 2103/2124 10010KT P6SM SKC
     FM211100 19005KT 5SM BR BKN007
     FM211300 18003KT 1/2SM FG OVC003
     FM211700 20005KT P6SM OVC007
     FM212000 22009KT P6SM OVC015=



000
FTUS46 KPQR 210301 AAB
TAFONP
TAF AMD
KONP 210301Z 2103/2124 20012G18KT P6SM BKN005
     FM210400 22008KT 4SM BR OVC003
     FM210800 18010KT 1/2SM FG OVC001
     FM211600 21006KT 1SM BR OVC001
     FM212000 22010KT P6SM OVC003=



000
FTUS46 KPQR 210300 AAA
TAFPDX
TAF AMD
KPDX 210300Z 2103/2124 09010KT P6SM SCT060
     FM210500 09007KT P6SM SCT050
     FM211800 13005KT P6SM SCT250=



000
FTUS46 KPQR 210300 AAA
TAFPDX
TAF AMD
KPDX 210300Z 2103/2124 09010KT P6SM SCT060
     FM210500 09007KT P6SM SCT050
     FM211800 13005KT P6SM SCT250=



000
FTUS46 KPQR 210202 AAA
TAFONP
TAF AMD
KONP 210202Z 2102/2124 20012G20KT P6SM SKC
     FM210400 22008KT 4SM BR OVC003
     FM210800 18010KT 1/2SM FG OVC001
     FM211600 21006KT 1SM BR OVC001
     FM212000 22010KT P6SM OVC003=



000
FTUS46 KPQR 202334
TAFSLE
TAF
KSLE 202334Z 2100/2124 01009KT P6SM SKC
     FM210300 VRB03KT P6SM SKC
     FM211800 20005KT P6SM SKC=



000
FTUS46 KPQR 202334
TAFTTD
TAF
KTTD 202334Z 2100/2124 09014G24KT P6SM FEW100 FEW250
     FM210100 09010G15KT P6SM FEW100 FEW250
     FM211800 08005KT P6SM SKC=



000
FTUS46 KPQR 202334
TAFHIO
TAF
KHIO 202334Z 2100/2124 06012KT P6SM SKC
     FM210300 04005KT P6SM SKC
     FM211800 13005KT P6SM SKC=



000
FTUS46 KPQR 202334
TAFEUG
TAF
KEUG 202334Z 2100/2124 01007KT P6SM SKC
     FM210200 27007KT P6SM SKC
     FM210500 19007KT P6SM SKC
     FM211800 23005KT P6SM SKC=



000
FTUS46 KPQR 202334
TAFPDX
TAF
KPDX 202334Z 2100/2124 07013G22KT P6SM FEW100 FEW250
     FM210300 09007KT P6SM FEW100 FEW250
     FM211800 13005KT P6SM SCT250=



000
FTUS46 KPQR 202334
TAFONP
TAF
KONP 202334Z 2100/2124 36008KT P6SM SKC
     FM210400 22008KT 4SM BR OVC003
     FM210800 18010KT 1/2SM FG OVC001
     FM211600 21006KT 1SM BR OVC001
     FM212000 22010KT P6SM OVC003=



000
FTUS46 KPQR 202334
TAFAST
TAF
KAST 202334Z 2100/2124 05010KT P6SM SKC
     FM210900 19005KT 5SM BR BKN007
     FM211100 18003KT 1/2SM FG OVC003
     FM211700 20005KT P6SM OVC007
     FM212000 22009KT P6SM OVC015=



000
FTUS46 KPQR 202334
TAFHIO
TAF
KHIO 202334Z 2100/2124 06012KT P6SM SKC
     FM210300 04005KT P6SM SKC
     FM211800 13005KT P6SM SKC=



000
FTUS46 KPQR 202334
TAFPDX
TAF
KPDX 202334Z 2100/2124 07013G22KT P6SM FEW100 FEW250
     FM210300 09007KT P6SM FEW100 FEW250
     FM211800 13005KT P6SM SCT250=



000
FTUS46 KPQR 202334
TAFAST
TAF
KAST 202334Z 2100/2124 05010KT P6SM SKC
     FM210900 19005KT 5SM BR BKN007
     FM211100 18003KT 1/2SM FG OVC003
     FM211700 20005KT P6SM OVC007
     FM212000 22009KT P6SM OVC015=



000
FTUS46 KPQR 202334
TAFONP
TAF
KONP 202334Z 2100/2124 36008KT P6SM SKC
     FM210400 22008KT 4SM BR OVC003
     FM210800 18010KT 1/2SM FG OVC001
     FM211600 21006KT 1SM BR OVC001
     FM212000 22010KT P6SM OVC003=



000
FTUS46 KPQR 202334
TAFTTD
TAF
KTTD 202334Z 2100/2124 09014G24KT P6SM FEW100 FEW250
     FM210100 09010G15KT P6SM FEW100 FEW250
     FM211800 08005KT P6SM SKC=



000
FTUS46 KPQR 202334
TAFSLE
TAF
KSLE 202334Z 2100/2124 01009KT P6SM SKC
     FM210300 VRB03KT P6SM SKC
     FM211800 20005KT P6SM SKC=



000
FTUS46 KPQR 202334
TAFEUG
TAF
KEUG 202334Z 2100/2124 01007KT P6SM SKC
     FM210200 27007KT P6SM SKC
     FM210500 19007KT P6SM SKC
     FM211800 23005KT P6SM SKC=



000
FTUS46 KPQR 202103 AAB
TAFPDX
TAF AMD
KPDX 202103Z 2021/2118 05013G22KT P6SM SKC
     FM210200 09007KT P6SM SKC=



000
FTUS46 KPQR 202103 AAB
TAFPDX
TAF AMD
KPDX 202103Z 2021/2118 05013G22KT P6SM SKC
     FM210200 09007KT P6SM SKC=



000
FTUS46 KPQR 202049 AAA
TAFPDX
TAF AMD
KPDX 202049Z 2021/2118 08008KT P6SM SKC
     FM202200 05013G22KT P6SM SKC
     FM210200 09007KT P6SM SKC=



000
FTUS46 KPQR 201720
TAFSLE
TAF
KSLE 201720Z 2018/2118 01009KT P6SM SKC
     FM210300 VRB03KT P6SM SKC=



000
FTUS46 KPQR 201720
TAFAST
TAF
KAST 201720Z 2018/2118 03010KT P6SM SKC
     FM210900 19005KT 5SM BR BKN007
     FM211100 18003KT 1/2SM FG OVC007=



000
FTUS46 KPQR 201720
TAFEUG
TAF
KEUG 201720Z 2018/2118 01007KT P6SM SKC
     FM210200 27007KT P6SM SKC
     FM210500 19007KT P6SM SKC=



000
FTUS46 KPQR 201720
TAFSLE
TAF
KSLE 201720Z 2018/2118 01009KT P6SM SKC
     FM210300 VRB03KT P6SM SKC=



000
FTUS46 KPQR 201720
TAFTTD
TAF
KTTD 201720Z 2018/2118 09010KT P6SM SKC
     FM201900 09014G24KT P6SM SKC
     FM210100 09011KT P6SM SKC=



000
FTUS46 KPQR 201720
TAFHIO
TAF
KHIO 201720Z 2018/2118 33002KT P6SM SKC
     FM202100 06011KT P6SM SKC
     FM210300 04005KT P6SM SKC=



000
FTUS46 KPQR 201720
TAFONP
TAF
KONP 201720Z 2018/2118 36008KT P6SM SKC
     FM210400 22008KT 4SM BR OVC003
     FM210900 18010KT 1/2SM FG OVC007=



000
FTUS46 KPQR 201720
TAFTTD
TAF
KTTD 201720Z 2018/2118 09010KT P6SM SKC
     FM201900 09014G24KT P6SM SKC
     FM210100 09011KT P6SM SKC=



000
FTUS46 KPQR 201720
TAFHIO
TAF
KHIO 201720Z 2018/2118 33002KT P6SM SKC
     FM202100 06011KT P6SM SKC
     FM210300 04005KT P6SM SKC=



000
FTUS46 KPQR 201720
TAFPDX
TAF
KPDX 201720Z 2018/2118 08008KT P6SM SKC
     FM202100 05013G22KT P6SM SKC
     FM210200 09007KT P6SM SKC=



000
FTUS46 KPQR 201720
TAFPDX
TAF
KPDX 201720Z 2018/2118 08008KT P6SM SKC
     FM202100 05013G22KT P6SM SKC
     FM210200 09007KT P6SM SKC=



000
FTUS46 KPQR 201720
TAFEUG
TAF
KEUG 201720Z 2018/2118 01007KT P6SM SKC
     FM210200 27007KT P6SM SKC
     FM210500 19007KT P6SM SKC=



000
FTUS46 KPQR 201720
TAFAST
TAF
KAST 201720Z 2018/2118 03010KT P6SM SKC
     FM210900 19005KT 5SM BR BKN007
     FM211100 18003KT 1/2SM FG OVC007=



000
FTUS46 KPQR 201720
TAFONP
TAF
KONP 201720Z 2018/2118 36008KT P6SM SKC
     FM210400 22008KT 4SM BR OVC003
     FM210900 18010KT 1/2SM FG OVC007=



000
FTUS46 KPQR 201450 AAA
TAFPDX
TAF AMD
KPDX 201450Z 2015/2112 31005KT P6SM SKC
     FM201800 08008KT P6SM SKC
     FM202100 05013G22KT P6SM SKC
     FM210200 09007KT P6SM SKC=



000
FTUS46 KPQR 201450 AAA
TAFPDX
TAF AMD
KPDX 201450Z 2015/2112 31005KT P6SM SKC
     FM201800 08008KT P6SM SKC
     FM202100 05013G22KT P6SM SKC
     FM210200 09007KT P6SM SKC=



000
FTUS46 KPQR 201358 AAA
TAFONP
TAF AMD
KONP 201358Z 2014/2112 05003KT 1/2SM FG BKN005
      TEMPO 2014/2016 3SM BR SCT005
     FM201600 36010KT P6SM SKC
     FM210400 22008KT 1SM BR OVC003
     FM210900 18010KT 4SM BR OVC008=



000
FTUS46 KPQR 201138
TAFSLE
TAF
KSLE 201138Z 2012/2112 VRB03KT P6SM SKC
     FM201800 01009KT P6SM SKC
     FM210300 VRB03KT P6SM SKC=



000
FTUS46 KPQR 201138
TAFHIO
TAF
KHIO 201138Z 2012/2112 33002KT P6SM SKC
     FM202100 06011KT P6SM SKC
     FM210300 04005KT P6SM SKC=



000
FTUS46 KPQR 201138
TAFEUG
TAF
KEUG 201138Z 2012/2112 01007KT P6SM SKC
     FM210200 27007KT P6SM SKC
     FM210500 21007KT P6SM SKC=



000
FTUS46 KPQR 201138
TAFAST
TAF
KAST 201138Z 2012/2112 VRB03KT 3/4SM BR OVC002
     FM201500 04004KT 3SM BR BKN004
     FM201700 03008KT P6SM SKC
     FM211000 19005KT P6SM FEW005=



000
FTUS46 KPQR 201138
TAFEUG
TAF
KEUG 201138Z 2012/2112 01007KT P6SM SKC
     FM210200 27007KT P6SM SKC
     FM210500 21007KT P6SM SKC=



000
FTUS46 KPQR 201138
TAFTTD
TAF
KTTD 201138Z 2012/2112 VRB03KT P6SM SKC
     FM201600 09010KT P6SM SKC
     FM201900 09014G24KT P6SM SKC
     FM210100 09011KT P6SM SKC=



000
FTUS46 KPQR 201138
TAFPDX
TAF
KPDX 201138Z 2012/2112 31005KT P6SM SKC
     FM201800 08005KT P6SM SKC
     FM202100 05013G22KT P6SM SKC
     FM210200 09007KT P6SM SKC=



000
FTUS46 KPQR 201138
TAFTTD
TAF
KTTD 201138Z 2012/2112 VRB03KT P6SM SKC
     FM201600 09010KT P6SM SKC
     FM201900 09014G24KT P6SM SKC
     FM210100 09011KT P6SM SKC=



000
FTUS46 KPQR 201138
TAFSLE
TAF
KSLE 201138Z 2012/2112 VRB03KT P6SM SKC
     FM201800 01009KT P6SM SKC
     FM210300 VRB03KT P6SM SKC=



000
FTUS46 KPQR 201138
TAFPDX
TAF
KPDX 201138Z 2012/2112 31005KT P6SM SKC
     FM201800 08005KT P6SM SKC
     FM202100 05013G22KT P6SM SKC
     FM210200 09007KT P6SM SKC=



000
FTUS46 KPQR 201138
TAFONP
TAF
KONP 201138Z 2012/2112 05003KT 4SM BR SKC
      TEMPO 2012/2014 1SM BR SCT002
     FM201600 36010KT P6SM SKC
     FM210400 22008KT 1SM BR OVC003
     FM210900 18010KT 4SM BR OVC008=



000
FTUS46 KPQR 201138
TAFHIO
TAF
KHIO 201138Z 2012/2112 33002KT P6SM SKC
     FM202100 06011KT P6SM SKC
     FM210300 04005KT P6SM SKC=



000
FTUS46 KPQR 201138
TAFONP
TAF
KONP 201138Z 2012/2112 05003KT 4SM BR SKC
      TEMPO 2012/2014 1SM BR SCT002
     FM201600 36010KT P6SM SKC
     FM210400 22008KT 1SM BR OVC003
     FM210900 18010KT 4SM BR OVC008=



000
FTUS46 KPQR 201138
TAFAST
TAF
KAST 201138Z 2012/2112 VRB03KT 3/4SM BR OVC002
     FM201500 04004KT 3SM BR BKN004
     FM201700 03008KT P6SM SKC
     FM211000 19005KT P6SM FEW005=



000
FTUS46 KPQR 201032 AAA
TAFONP
TAF AMD
KONP 201032Z 2011/2106 05003KT 4SM BR SKC
      TEMPO 2011/2014 1SM BR SCT002
     FM201600 36010KT P6SM SKC
     FM210400 22008KT 2SM BR BKN003=



000
FTUS46 KPQR 201032 AAA
TAFONP
TAF AMD
KONP 201032Z 2011/2106 05003KT 4SM BR SKC
      TEMPO 2011/2014 1SM BR SCT002
     FM201600 36010KT P6SM SKC
     FM210400 22008KT 2SM BR BKN003=



000
FTUS46 KPQR 200912 AAA
TAFPDX
TAF AMD
KPDX 200912Z 2009/2106 31005KT P6SM SKC
     FM201800 VRB03KT P6SM SKC
     FM202100 05013KT P6SM SKC
     FM210200 09007KT P6SM SKC=



000
FTUS46 KPQR 200828 AAA
TAFAST
TAF AMD
KAST 200828Z 2008/2106 VRB03KT 1SM BR OVC003
     FM201300 04004KT 4SM BR SCT005
     FM201700 03008KT P6SM SKC=



000
FTUS46 KPQR 200828 AAA
TAFAST
TAF AMD
KAST 200828Z 2008/2106 VRB03KT 1SM BR OVC003
     FM201300 04004KT 4SM BR SCT005
     FM201700 03008KT P6SM SKC=



000
FTUS46 KPQR 200535
TAFTTD
TAF
KTTD 200535Z 2006/2106 VRB03KT P6SM SKC
     FM201600 09013KT P6SM SKC=



000
FTUS46 KPQR 200535
TAFSLE
TAF
KSLE 200535Z 2006/2106 01004KT P6SM SKC
     FM201800 01009KT P6SM SKC
     FM210100 VRB03KT P6SM SKC=



000
FTUS46 KPQR 200535
TAFONP
TAF
KONP 200535Z 2006/2106 05003KT P6SM SKC
      TEMPO 2006/2010 3SM BR SCT003
     FM201600 36010KT P6SM SKC
     FM210400 22008KT 2SM BR BKN003=



000
FTUS46 KPQR 200535
TAFEUG
TAF
KEUG 200535Z 2006/2106 01007KT P6SM SKC
     FM210200 27007KT P6SM SKC=



000
FTUS46 KPQR 200535
TAFONP
TAF
KONP 200535Z 2006/2106 05003KT P6SM SKC
      TEMPO 2006/2010 3SM BR SCT003
     FM201600 36010KT P6SM SKC
     FM210400 22008KT 2SM BR BKN003=



000
FTUS46 KPQR 200535
TAFHIO
TAF
KHIO 200535Z 2006/2106 33002KT P6SM SKC
     FM201900 06009KT P6SM SKC=



000
FTUS46 KPQR 200535
TAFAST
TAF
KAST 200535Z 2006/2106 36004KT P6SM SCT005
     FM200900 05004KT 6SM BR SCT005
     FM201700 03008KT P6SM SKC=



000
FTUS46 KPQR 200535
TAFAST
TAF
KAST 200535Z 2006/2106 36004KT P6SM SCT005
     FM200900 05004KT 6SM BR SCT005
     FM201700 03008KT P6SM SKC=



000
FTUS46 KPQR 200535
TAFPDX
TAF
KPDX 200535Z 2006/2106 31005KT P6SM SKC
     FM201900 05013KT P6SM SKC
     FM210200 09007KT P6SM SKC=



000
FTUS46 KPQR 200535
TAFPDX
TAF
KPDX 200535Z 2006/2106 31005KT P6SM SKC
     FM201900 05013KT P6SM SKC
     FM210200 09007KT P6SM SKC=



000
FTUS46 KPQR 200535
TAFSLE
TAF
KSLE 200535Z 2006/2106 01004KT P6SM SKC
     FM201800 01009KT P6SM SKC
     FM210100 VRB03KT P6SM SKC=



000
FTUS46 KPQR 200535
TAFTTD
TAF
KTTD 200535Z 2006/2106 VRB03KT P6SM SKC
     FM201600 09013KT P6SM SKC=



000
FTUS46 KPQR 200535
TAFEUG
TAF
KEUG 200535Z 2006/2106 01007KT P6SM SKC
     FM210200 27007KT P6SM SKC=



000
FTUS46 KPQR 200535
TAFHIO
TAF
KHIO 200535Z 2006/2106 33002KT P6SM SKC
     FM201900 06009KT P6SM SKC=



000
FTUS46 KPQR 200309 AAA
TAFPDX
TAF AMD
KPDX 200309Z 2003/2024 32005KT P6SM SKC
     FM200700 VRB03KT P6SM FEW250
     FM202000 05012KT P6SM SKC=



000
FTUS46 KPQR 200309 AAA
TAFPDX
TAF AMD
KPDX 200309Z 2003/2024 32005KT P6SM SKC
     FM200700 VRB03KT P6SM FEW250
     FM202000 05012KT P6SM SKC=



000
FTUS46 KPQR 192355
TAFONP
TAF
KONP 192355Z 2000/2024 35009KT P6SM SKC
     FM200500 06003KT P6SM SKC
      TEMPO 2011/2015 1SM BR SCT002
     FM201600 36010KT P6SM SKC=



000
FTUS46 KPQR 192355
TAFAST
TAF
KAST 192355Z 2000/2024 31008KT P6SM SCT040
     FM200600 36004KT P6SM SKC
     FM200900 VRB03KT 2SM BR SCT005
     FM201700 04008KT P6SM SKC=



000
FTUS46 KPQR 192355
TAFEUG
TAF
KEUG 192355Z 2000/2024 36012KT P6SM SKC
     FM200400 01006KT P6SM SKC=



000
FTUS46 KPQR 192355
TAFTTD
TAF
KTTD 192355Z 2000/2024 VRB03KT P6SM SKC
     FM201600 09012KT P6SM SKC=



000
FTUS46 KPQR 192355
TAFHIO
TAF
KHIO 192355Z 2000/2024 VRB03KT P6SM SKC
     FM202000 05012KT P6SM SKC=



000
FTUS46 KPQR 192355
TAFSLE
TAF
KSLE 192355Z 2000/2024 36004KT P6SM SKC
     FM201900 36009KT P6SM SKC=



000
FTUS46 KPQR 192355
TAFPDX
TAF
KPDX 192355Z 2000/2024 31005KT P6SM SCT250
     FM200700 VRB03KT P6SM FEW250
     FM202000 05012KT P6SM SKC=



000
FTUS46 KPQR 192355
TAFONP
TAF
KONP 192355Z 2000/2024 35009KT P6SM SKC
     FM200500 06003KT P6SM SKC
      TEMPO 2011/2015 1SM BR SCT002
     FM201600 36010KT P6SM SKC=



000
FTUS46 KPQR 192355
TAFHIO
TAF
KHIO 192355Z 2000/2024 VRB03KT P6SM SKC
     FM202000 05012KT P6SM SKC=



000
FTUS46 KPQR 192355
TAFAST
TAF
KAST 192355Z 2000/2024 31008KT P6SM SCT040
     FM200600 36004KT P6SM SKC
     FM200900 VRB03KT 2SM BR SCT005
     FM201700 04008KT P6SM SKC=



000
FTUS46 KPQR 192355
TAFEUG
TAF
KEUG 192355Z 2000/2024 36012KT P6SM SKC
     FM200400 01006KT P6SM SKC=



000
FTUS46 KPQR 192355
TAFPDX
TAF
KPDX 192355Z 2000/2024 31005KT P6SM SCT250
     FM200700 VRB03KT P6SM FEW250
     FM202000 05012KT P6SM SKC=



000
FTUS46 KPQR 192355
TAFSLE
TAF
KSLE 192355Z 2000/2024 36004KT P6SM SKC
     FM201900 36009KT P6SM SKC=



000
FTUS46 KPQR 192355
TAFTTD
TAF
KTTD 192355Z 2000/2024 VRB03KT P6SM SKC
     FM201600 09012KT P6SM SKC=



000
FTUS46 KPQR 192111 AAA
TAFPDX
TAF AMD
KPDX 192111Z 1921/2018 31007KT P6SM SCT250
     FM200700 VRB03KT P6SM FEW250=



000
FTUS46 KPQR 192111 AAA
TAFPDX
TAF AMD
KPDX 192111Z 1921/2018 31007KT P6SM SCT250
     FM200700 VRB03KT P6SM FEW250=



000
FTUS46 KPQR 191720
TAFSLE
TAF
KSLE 191720Z 1918/2018 VRB03KT P6SM SKC
     FM192000 36006KT P6SM SCT060
     FM200400 VRB03KT P6SM SKC=



000
FTUS46 KPQR 191720
TAFONP
TAF
KONP 191720Z 1918/2018 09003KT P6SM FEW007
     FM192100 35010KT P6SM SCT011
     FM200000 01008KT P6SM SKC
     FM200800 VRB03KT 2SM BR BKN002
     FM201100 08003KT 1/2SM FG OVC001=



000
FTUS46 KPQR 191720
TAFONP
TAF
KONP 191720Z 1918/2018 09003KT P6SM FEW007
     FM192100 35010KT P6SM SCT011
     FM200000 01008KT P6SM SKC
     FM200800 VRB03KT 2SM BR BKN002
     FM201100 08003KT 1/2SM FG OVC001=



000
FTUS46 KPQR 191720
TAFAST
TAF
KAST 191720Z 1918/2018 24007KT P6SM BKN035
      TEMPO 1918/1920 BKN025
     FM192100 28007KT P6SM SCT025 BKN045
     FM200600 31005KT P6SM BKN015
     FM200900 VRB03KT 2SM BR BKN006
     FM201200 08003KT 1SM BR BKN003
     FM201700 08004KT P6SM SCT005=



000
FTUS46 KPQR 191720
TAFEUG
TAF
KEUG 191720Z 1918/2018 36008KT P6SM FEW060
     FM200400 VRB03KT P6SM SKC
     FM201400 VRB02KT 3SM BR SKC
     FM201700 VRB03KT P6SM SKC=



000
FTUS46 KPQR 191720
TAFSLE
TAF
KSLE 191720Z 1918/2018 VRB03KT P6SM SKC
     FM192000 36006KT P6SM SCT060
     FM200400 VRB03KT P6SM SKC=



000
FTUS46 KPQR 191720
TAFPDX
TAF
KPDX 191720Z 1918/2018 VRB03KT P6SM SCT040
     FM191800 32006KT P6SM SCT050
     FM200700 VRB03KT P6SM FEW250=



000
FTUS46 KPQR 191720
TAFHIO
TAF
KHIO 191720Z 1918/2018 VRB03KT P6SM SCT040
     FM200000 33007KT P6SM SCT050
     FM200700 VRB02KT P6SM FEW250=



000
FTUS46 KPQR 191720
TAFEUG
TAF
KEUG 191720Z 1918/2018 36008KT P6SM FEW060
     FM200400 VRB03KT P6SM SKC
     FM201400 VRB02KT 3SM BR SKC
     FM201700 VRB03KT P6SM SKC=



000
FTUS46 KPQR 191720
TAFTTD
TAF
KTTD 191720Z 1918/2018 VRB03KT P6SM FEW050
     FM192200 33006KT P6SM SCT050
     FM200900 09007KT P6SM SKC=



000
FTUS46 KPQR 191720
TAFTTD
TAF
KTTD 191720Z 1918/2018 VRB03KT P6SM FEW050
     FM192200 33006KT P6SM SCT050
     FM200900 09007KT P6SM SKC=



000
FTUS46 KPQR 191720
TAFPDX
TAF
KPDX 191720Z 1918/2018 VRB03KT P6SM SCT040
     FM191800 32006KT P6SM SCT050
     FM200700 VRB03KT P6SM FEW250=



000
FTUS46 KPQR 191720
TAFHIO
TAF
KHIO 191720Z 1918/2018 VRB03KT P6SM SCT040
     FM200000 33007KT P6SM SCT050
     FM200700 VRB02KT P6SM FEW250=



000
FTUS46 KPQR 191720
TAFAST
TAF
KAST 191720Z 1918/2018 24007KT P6SM BKN035
      TEMPO 1918/1920 BKN025
     FM192100 28007KT P6SM SCT025 BKN045
     FM200600 31005KT P6SM BKN015
     FM200900 VRB03KT 2SM BR BKN006
     FM201200 08003KT 1SM BR BKN003
     FM201700 08004KT P6SM SCT005=



000
FTUS46 KPQR 191517 AAC
TAFONP
TAF AMD
KONP 191517Z 1915/2012 09003KT P6SM SCT006
      TEMPO 1915/1917 5SM BR BKN006
     FM191700 36005KT P6SM BKN012
     FM191900 35014KT P6SM SCT012
     FM200000 01008KT P6SM SKC
     FM200900 VRB03KT 2SM BR BKN002=



000
FTUS46 KPQR 191517 AAC
TAFONP
TAF AMD
KONP 191517Z 1915/2012 09003KT P6SM SCT006
      TEMPO 1915/1917 5SM BR BKN006
     FM191700 36005KT P6SM BKN012
     FM191900 35014KT P6SM SCT012
     FM200000 01008KT P6SM SKC
     FM200900 VRB03KT 2SM BR BKN002=



000
FTUS46 KPQR 191515 AAC
TAFAST
TAF AMD
KAST 191515Z 1915/2012 19004KT P6SM BKN015 BKN025
     FM191800 24006KT P6SM SCT015 BKN025 OVC035
     FM192100 28007KT P6SM SCT025 BKN045
     FM200600 31005KT P6SM BKN015
     FM200900 VRB03KT 2SM BR BKN008=



000
FTUS46 KPQR 191515 AAC
TAFAST
TAF AMD
KAST 191515Z 1915/2012 19004KT P6SM BKN015 BKN025
     FM191800 24006KT P6SM SCT015 BKN025 OVC035
     FM192100 28007KT P6SM SCT025 BKN045
     FM200600 31005KT P6SM BKN015
     FM200900 VRB03KT 2SM BR BKN008=



000
FTUS46 KPQR 191458 AAA
TAFPDX
TAF AMD
KPDX 191458Z 1915/2012 VRB03KT P6SM SCT040
     FM191800 32006KT P6SM BKN050
     FM200000 33007KT P6SM SCT050
     FM200700 VRB03KT P6SM FEW250=



000
FTUS46 KPQR 191458 AAA
TAFPDX
TAF AMD
KPDX 191458Z 1915/2012 VRB03KT P6SM SCT040
     FM191800 32006KT P6SM BKN050
     FM200000 33007KT P6SM SCT050
     FM200700 VRB03KT P6SM FEW250=



000
FTUS46 KPQR 191438 AAC
TAFEUG
TAF AMD
KEUG 191438Z 1915/2012 VRB02KT 2SM BCFG BKN001
     FM191600 VRB02KT P6SM SCT040
     FM191800 36008KT P6SM SCT045
     FM192000 36012KT P6SM SKC
     FM200400 VRB03KT P6SM SKC=



000
FTUS46 KPQR 191438 AAC
TAFEUG
TAF AMD
KEUG 191438Z 1915/2012 VRB02KT 2SM BCFG BKN001
     FM191600 VRB02KT P6SM SCT040
     FM191800 36008KT P6SM SCT045
     FM192000 36012KT P6SM SKC
     FM200400 VRB03KT P6SM SKC=



000
FTUS46 KPQR 191339 AAB
TAFAST
TAF AMD
KAST 191339Z 1914/2012 22004KT P6SM VCSH SCT008 OVC035
      TEMPO 1914/1918 5SM BR BKN008 OVC025
     FM191800 24006KT P6SM SCT015 BKN025 OVC035
     FM192100 28007KT P6SM SCT025 BKN045
     FM200600 31005KT P6SM BKN015
     FM200900 VRB03KT 2SM BR BKN008=



000
FTUS46 KPQR 191339 AAB
TAFAST
TAF AMD
KAST 191339Z 1914/2012 22004KT P6SM VCSH SCT008 OVC035
      TEMPO 1914/1918 5SM BR BKN008 OVC025
     FM191800 24006KT P6SM SCT015 BKN025 OVC035
     FM192100 28007KT P6SM SCT025 BKN045
     FM200600 31005KT P6SM BKN015
     FM200900 VRB03KT 2SM BR BKN008=



000
FTUS46 KPQR 191337 AAB
TAFONP
TAF AMD
KONP 191337Z 1914/2012 09003KT P6SM OVC010
      TEMPO 1914/1917 5SM BR BKN008
     FM191700 36005KT P6SM BKN012
     FM191900 35014KT P6SM SCT012
     FM200000 01008KT P6SM SKC
     FM200900 VRB03KT 2SM BR BKN002=



000
FTUS46 KPQR 191337 AAB
TAFONP
TAF AMD
KONP 191337Z 1914/2012 09003KT P6SM OVC010
      TEMPO 1914/1917 5SM BR BKN008
     FM191700 36005KT P6SM BKN012
     FM191900 35014KT P6SM SCT012
     FM200000 01008KT P6SM SKC
     FM200900 VRB03KT 2SM BR BKN002=



000
FTUS46 KPQR 191335 AAB
TAFEUG
TAF AMD
KEUG 191335Z 1914/2012 VRB02KT P6SM BCFG FEW002
      TEMPO 1914/1916 2SM BR SCT002
     FM191800 36008KT P6SM SCT045
     FM192000 36012KT P6SM SKC
     FM200400 VRB03KT P6SM SKC=



000
FTUS46 KPQR 191335 AAB
TAFEUG
TAF AMD
KEUG 191335Z 1914/2012 VRB02KT P6SM BCFG FEW002
      TEMPO 1914/1916 2SM BR SCT002
     FM191800 36008KT P6SM SCT045
     FM192000 36012KT P6SM SKC
     FM200400 VRB03KT P6SM SKC=



000
FTUS46 KPQR 191225 AAA
TAFONP
TAF AMD
KONP 191225Z 1912/2012 VRB02KT P6SM SCT010
      TEMPO 1912/1914 4SM BR BKN007
     FM191400 VRB02KT 6SM BR SCT009
      TEMPO 1914/1917 3SM BR BKN007
     FM191700 36005KT 6SM BR BKN007
     FM192000 35014KT P6SM SCT012
     FM200000 01008KT P6SM SKC
     FM200900 VRB03KT 2SM BR BKN002=



000
FTUS46 KPQR 191225 AAA
TAFONP
TAF AMD
KONP 191225Z 1912/2012 VRB02KT P6SM SCT010
      TEMPO 1912/1914 4SM BR BKN007
     FM191400 VRB02KT 6SM BR SCT009
      TEMPO 1914/1917 3SM BR BKN007
     FM191700 36005KT 6SM BR BKN007
     FM192000 35014KT P6SM SCT012
     FM200000 01008KT P6SM SKC
     FM200900 VRB03KT 2SM BR BKN002=



000
FTUS46 KPQR 191221 AAA
TAFAST
TAF AMD
KAST 191221Z 1912/2012 22004KT P6SM VCSH SCT009 OVC035
      TEMPO 1912/1914 5SM BR BKN009 OVC025
     FM191400 22004KT P6SM VCSH SCT007 OVC025
      TEMPO 1914/1918 4SM BR BKN007 OVC025
     FM191800 24006KT P6SM SCT015 BKN025 OVC035
     FM192100 28007KT P6SM SCT025 BKN045
     FM200600 31005KT P6SM BKN015
     FM200900 VRB03KT 2SM BR BKN008=



000
FTUS46 KPQR 191219 AAA
TAFEUG
TAF AMD
KEUG 191219Z 1912/2012 VRB02KT 5SM BR SCT002
      TEMPO 1912/1916 3/4SM BR BKN002
     FM191800 36008KT P6SM SCT045
     FM192000 36012KT P6SM SKC
     FM200400 VRB03KT P6SM SKC=



000
FTUS46 KPQR 191219 AAA
TAFEUG
TAF AMD
KEUG 191219Z 1912/2012 VRB02KT 5SM BR SCT002
      TEMPO 1912/1916 3/4SM BR BKN002
     FM191800 36008KT P6SM SCT045
     FM192000 36012KT P6SM SKC
     FM200400 VRB03KT P6SM SKC=



000
FTUS46 KPQR 191127
TAFTTD
TAF
KTTD 191127Z 1912/2012 VRB03KT P6SM BKN035 OVC045
     FM192000 32006KT P6SM BKN040
     FM192200 32006KT P6SM BKN050
     FM200000 33007KT P6SM SCT050
     FM200300 33007KT P6SM FEW250
     FM200700 VRB03KT P6SM FEW250=



000
FTUS46 KPQR 191127
TAFPDX
TAF
KPDX 191127Z 1912/2012 VRB03KT P6SM BKN035 OVC045
     FM192000 32006KT P6SM BKN040
     FM192200 32006KT P6SM BKN050
     FM200000 33007KT P6SM SCT050
     FM200300 33007KT P6SM FEW250
     FM200700 VRB03KT P6SM FEW250=



000
FTUS46 KPQR 191127
TAFAST
TAF
KAST 191127Z 1912/2012 22004KT P6SM VCSH SCT012 OVC035
      TEMPO 1912/1914 4SM BR BKN012 OVC025
     FM191400 22004KT 5SM BR VCSH SCT007 OVC012
     FM191800 24006KT P6SM SCT015 BKN025 OVC035
     FM192100 28007KT P6SM SCT025 BKN045
     FM200600 31005KT P6SM BKN015
     FM200900 VRB03KT 2SM BR BKN008=



000
FTUS46 KPQR 191127
TAFONP
TAF
KONP 191127Z 1912/2012 VRB03KT P6SM OVC007
     FM191400 VRB02KT 2SM BR OVC003
     FM191700 36005KT 4SM BR BKN007
     FM192000 35014KT P6SM SCT012
     FM200000 01008KT P6SM SKC
     FM200900 VRB03KT 2SM BR BKN002=



000
FTUS46 KPQR 191127
TAFHIO
TAF
KHIO 191127Z 1912/2012 VRB03KT P6SM BKN035 OVC045
     FM192000 32004KT P6SM BKN040
     FM192200 32004KT P6SM BKN050
     FM200000 33007KT P6SM SCT050
     FM200300 33007KT P6SM FEW250
     FM200700 VRB02KT P6SM FEW250=



000
FTUS46 KPQR 191127
TAFSLE
TAF
KSLE 191127Z 1912/2012 VRB03KT P6SM SCT045 BKN250
     FM191500 VRB03KT P6SM BKN035 OVC050
     FM192000 36006KT P6SM SCT060
     FM192300 36009KT P6SM SKC
     FM200400 VRB03KT P6SM SKC=



000
FTUS46 KPQR 191127
TAFONP
TAF
KONP 191127Z 1912/2012 VRB03KT P6SM OVC007
     FM191400 VRB02KT 2SM BR OVC003
     FM191700 36005KT 4SM BR BKN007
     FM192000 35014KT P6SM SCT012
     FM200000 01008KT P6SM SKC
     FM200900 VRB03KT 2SM BR BKN002=



000
FTUS46 KPQR 191127
TAFEUG
TAF
KEUG 191127Z 1912/2012 VRB02KT P6SM SCT070
     FM191500 VRB02KT P6SM SCT035
      TEMPO 1915/1918 BKN035
     FM191800 36008KT P6SM SCT045
     FM192000 36012KT P6SM SKC
     FM200400 VRB03KT P6SM SKC=



000
FTUS46 KPQR 191127
TAFPDX
TAF
KPDX 191127Z 1912/2012 VRB03KT P6SM BKN035 OVC045
     FM192000 32006KT P6SM BKN040
     FM192200 32006KT P6SM BKN050
     FM200000 33007KT P6SM SCT050
     FM200300 33007KT P6SM FEW250
     FM200700 VRB03KT P6SM FEW250=



000
FTUS46 KPQR 191127
TAFAST
TAF
KAST 191127Z 1912/2012 22004KT P6SM VCSH SCT012 OVC035
      TEMPO 1912/1914 4SM BR BKN012 OVC025
     FM191400 22004KT 5SM BR VCSH SCT007 OVC012
     FM191800 24006KT P6SM SCT015 BKN025 OVC035
     FM192100 28007KT P6SM SCT025 BKN045
     FM200600 31005KT P6SM BKN015
     FM200900 VRB03KT 2SM BR BKN008=



000
FTUS46 KPQR 191127
TAFTTD
TAF
KTTD 191127Z 1912/2012 VRB03KT P6SM BKN035 OVC045
     FM192000 32006KT P6SM BKN040
     FM192200 32006KT P6SM BKN050
     FM200000 33007KT P6SM SCT050
     FM200300 33007KT P6SM FEW250
     FM200700 VRB03KT P6SM FEW250=



000
FTUS46 KPQR 191127
TAFSLE
TAF
KSLE 191127Z 1912/2012 VRB03KT P6SM SCT045 BKN250
     FM191500 VRB03KT P6SM BKN035 OVC050
     FM192000 36006KT P6SM SCT060
     FM192300 36009KT P6SM SKC
     FM200400 VRB03KT P6SM SKC=



000
FTUS46 KPQR 191127
TAFEUG
TAF
KEUG 191127Z 1912/2012 VRB02KT P6SM SCT070
     FM191500 VRB02KT P6SM SCT035
      TEMPO 1915/1918 BKN035
     FM191800 36008KT P6SM SCT045
     FM192000 36012KT P6SM SKC
     FM200400 VRB03KT P6SM SKC=



000
FTUS46 KPQR 191127
TAFHIO
TAF
KHIO 191127Z 1912/2012 VRB03KT P6SM BKN035 OVC045
     FM192000 32004KT P6SM BKN040
     FM192200 32004KT P6SM BKN050
     FM200000 33007KT P6SM SCT050
     FM200300 33007KT P6SM FEW250
     FM200700 VRB02KT P6SM FEW250=



000
FTUS46 KPQR 190907 AAA
TAFHIO
TAF AMD
KHIO 190907Z 1909/2006 VRB03KT P6SM SCT035 BKN060
      TEMPO 1909/1912 BKN035
     FM191200 VRB03KT P6SM BKN030 OVC050
     FM192000 35004KT P6SM SCT050=



000
FTUS46 KPQR 190907 AAA
TAFHIO
TAF AMD
KHIO 190907Z 1909/2006 VRB03KT P6SM SCT035 BKN060
      TEMPO 1909/1912 BKN035
     FM191200 VRB03KT P6SM BKN030 OVC050
     FM192000 35004KT P6SM SCT050=



000
FTUS46 KPQR 190907 AAA
TAFSLE
TAF AMD
KSLE 190907Z 1909/2006 VRB03KT P6SM SCT040 BKN060
     FM191300 VRB03KT P6SM BKN035 OVC050
     FM191900 36006KT P6SM SCT070=



000
FTUS46 KPQR 190907 AAA
TAFSLE
TAF AMD
KSLE 190907Z 1909/2006 VRB03KT P6SM SCT040 BKN060
     FM191300 VRB03KT P6SM BKN035 OVC050
     FM191900 36006KT P6SM SCT070=



000
FTUS46 KPQR 190906 AAA
TAFPDX
TAF AMD
KPDX 190906Z 1909/2006 VRB03KT P6SM BKN040 OVC050
     FM191200 VRB03KT P6SM BKN035 OVC050
     FM192000 32006KT P6SM SCT050=



    US Dept of Commerce
    National Oceanic and Atmospheric Administration
    National Weather Service
    1325 East West Highway
    Silver Spring, MD 20910
    Page Author: NWS Internet Services Team
Disclaimer
Information Quality
Credits
Glossary
Privacy Policy
Freedom of Information Act (FOIA)
About Us
Career Opportunities